createdAt,value
2018-04-19T00:00:52.981Z,101220
2018-04-19T00:03:21.142Z,101216
2018-04-19T00:05:49.255Z,101214
2018-04-19T00:08:18.129Z,101208
2018-04-19T00:10:46.264Z,101213
2018-04-19T00:13:14.381Z,101210
2018-04-19T00:15:42.509Z,101206
2018-04-19T00:18:10.650Z,101202
2018-04-19T00:20:39.611Z,101205
2018-04-19T00:23:08.269Z,101204
2018-04-19T00:25:36.390Z,101199
2018-04-19T00:28:04.508Z,101205
2018-04-19T00:30:33.398Z,101212
2018-04-19T00:33:02.282Z,101209
2018-04-19T00:35:31.166Z,101203
2018-04-19T00:37:59.308Z,101204
2018-04-19T00:40:27.443Z,101202
2018-04-19T00:42:56.746Z,101204
2018-04-19T00:45:24.918Z,101202
2018-04-19T00:47:53.806Z,101203
2018-04-19T00:50:22.700Z,101200
2018-04-19T00:53:08.561Z,101196
2018-04-19T00:55:36.693Z,101192
2018-04-19T00:58:04.811Z,101193
2018-04-19T01:00:32.924Z,101199
2018-04-19T01:03:01.804Z,101191
2018-04-19T01:05:29.921Z,101182
2018-04-19T01:07:58.057Z,101182
2018-04-19T01:10:26.767Z,101186
2018-04-19T01:12:55.645Z,101185
2018-04-19T01:15:24.539Z,101183
2018-04-19T01:17:52.688Z,101187
2018-04-19T01:20:20.825Z,101181
2018-04-19T01:22:48.937Z,101179
2018-04-19T01:25:17.060Z,101180
2018-04-19T01:27:45.944Z,101178
2018-04-19T01:30:14.829Z,101175
2018-04-19T01:32:44.451Z,101178
2018-04-19T01:35:13.336Z,101179
2018-04-19T01:37:41.456Z,101179
2018-04-19T01:40:09.577Z,101179
2018-04-19T01:42:37.729Z,101170
2018-04-19T01:45:05.843Z,101179
2018-04-19T01:47:34.021Z,101177
2018-04-19T01:50:02.115Z,101183
2018-04-19T01:52:30.993Z,101181
2018-04-19T01:55:00.609Z,101182
2018-04-19T01:57:28.719Z,101186
2018-04-19T01:59:56.826Z,101182
2018-04-19T02:02:24.953Z,101177
2018-04-19T02:04:53.845Z,101183
2018-04-19T02:07:22.750Z,101177
2018-04-19T02:09:51.681Z,101172
2018-04-19T02:12:19.784Z,101180
2018-04-19T02:14:47.905Z,101179
2018-04-19T02:17:16.782Z,101178
2018-04-19T02:19:44.920Z,101186
2018-04-19T02:22:13.025Z,101184
2018-04-19T02:24:41.167Z,101177
2018-04-19T02:27:09.285Z,101184
2018-04-19T02:29:37.425Z,101179
2018-04-19T02:32:05.550Z,101176
2018-04-19T02:34:34.429Z,101176
2018-04-19T02:37:02.570Z,101167
2018-04-19T02:39:30.685Z,101172
2018-04-19T02:41:58.804Z,101173
2018-04-19T02:44:26.936Z,101168
2018-04-19T02:46:55.061Z,101171
2018-04-19T02:49:23.186Z,101161
2018-04-19T02:51:51.327Z,101174
2018-04-19T02:54:20.208Z,101168
2018-04-19T02:56:48.324Z,101164
2018-04-19T02:59:16.445Z,101170
2018-04-19T03:01:45.326Z,101167
2018-04-19T03:04:14.244Z,101163
2018-04-19T03:06:42.359Z,101160
2018-04-19T03:09:10.508Z,101162
2018-04-19T03:11:38.613Z,101164
2018-04-19T03:14:06.767Z,101158
2018-04-19T03:16:34.904Z,101158
2018-04-19T03:19:03.788Z,101154
2018-04-19T03:21:31.922Z,101154
2018-04-19T03:24:00.032Z,101155
2018-04-19T03:26:28.167Z,101156
2018-04-19T03:28:56.354Z,101157
2018-04-19T03:31:25.197Z,101154
2018-04-19T03:33:53.318Z,101156
2018-04-19T03:36:21.427Z,101149
2018-04-19T03:38:50.320Z,101151
2018-04-19T03:41:18.431Z,101150
2018-04-19T03:43:46.573Z,101147
2018-04-19T03:46:14.675Z,101145
2018-04-19T03:48:42.789Z,101141
2018-04-19T03:51:10.918Z,101144
2018-04-19T03:53:39.025Z,101140
2018-04-19T03:56:07.919Z,101143
2018-04-19T03:58:36.827Z,101145
2018-04-19T04:01:05.749Z,101147
2018-04-19T04:03:33.853Z,101140
2018-04-19T04:06:01.970Z,101131
2018-04-19T04:08:30.106Z,101131
2018-04-19T04:10:58.229Z,101142
2018-04-19T04:13:27.112Z,101140
2018-04-19T04:15:56.018Z,101136
2018-04-19T04:18:42.793Z,101136
2018-04-19T04:21:18.363Z,101146
2018-04-19T04:23:53.121Z,101147
2018-04-19T04:26:21.225Z,101136
2018-04-19T04:28:49.366Z,101144
2018-04-19T04:31:17.495Z,101144
2018-04-19T04:33:45.725Z,101138
2018-04-19T04:36:13.849Z,101139
2018-04-19T04:38:41.966Z,101140
2018-04-19T04:41:10.857Z,101149
2018-04-19T04:43:39.730Z,101141
2018-04-19T04:46:07.885Z,101143
2018-04-19T04:48:36.028Z,101144
2018-04-19T04:51:04.148Z,101144
2018-04-19T04:53:32.274Z,101135
2018-04-19T04:56:00.387Z,101132
2018-04-19T04:58:28.506Z,101132
2018-04-19T05:00:57.390Z,101141
2018-04-19T05:03:26.280Z,101139
2018-04-19T05:05:54.386Z,101135
2018-04-19T05:08:23.289Z,101138
2018-04-19T05:10:51.392Z,101141
2018-04-19T05:13:19.510Z,101129
2018-04-19T05:15:48.404Z,101142
2018-04-19T05:18:16.509Z,101148
2018-04-19T05:20:44.628Z,101157
2018-04-19T05:23:12.781Z,101153
2018-04-19T05:25:40.914Z,101143
2018-04-19T05:28:09.937Z,101148
2018-04-19T05:30:38.054Z,101156
2018-04-19T05:33:06.153Z,101148
2018-04-19T05:35:34.287Z,101151
2018-04-19T05:38:02.420Z,101144
2018-04-19T05:40:31.318Z,101148
2018-04-19T05:42:59.466Z,101155
2018-04-19T05:45:27.595Z,101159
2018-04-19T05:47:56.481Z,101150
2018-04-19T05:50:25.369Z,101156
2018-04-19T05:52:54.264Z,101157
2018-04-19T05:55:23.146Z,101158
2018-04-19T05:57:51.286Z,101155
2018-04-19T06:00:19.443Z,101159
2018-04-19T06:02:47.561Z,101157
2018-04-19T06:05:15.686Z,101165
2018-04-19T06:07:43.816Z,101162
2018-04-19T06:10:11.962Z,101168
2018-04-19T06:12:40.077Z,101163
2018-04-19T06:15:08.275Z,101171
2018-04-19T06:17:36.394Z,101166
2018-04-19T06:20:05.274Z,101165
2018-04-19T06:22:33.397Z,101168
2018-04-19T06:25:01.525Z,101166
2018-04-19T06:27:29.681Z,101173
2018-04-19T06:29:58.609Z,101172
2018-04-19T06:32:26.722Z,101172
2018-04-19T06:34:54.849Z,101178
2018-04-19T06:37:23.721Z,101180
2018-04-19T06:39:51.861Z,101183
2018-04-19T06:42:19.983Z,101175
2018-04-19T06:44:48.878Z,101178
2018-04-19T06:47:17.760Z,101178
2018-04-19T06:49:45.893Z,101171
2018-04-19T06:52:13.997Z,101172
2018-04-19T06:54:42.106Z,101169
2018-04-19T06:57:11.012Z,101166
2018-04-19T06:59:39.140Z,101167
2018-04-19T07:02:07.273Z,101164
2018-04-19T07:04:35.401Z,101164
2018-04-19T07:07:03.536Z,101166
2018-04-19T07:09:31.672Z,101163
2018-04-19T07:11:59.794Z,101164
2018-04-19T07:14:27.946Z,101166
2018-04-19T07:16:56.873Z,101173
2018-04-19T07:19:24.986Z,101163
2018-04-19T07:21:53.129Z,101168
2018-04-19T07:24:21.248Z,101161
2018-04-19T07:26:49.387Z,101162
2018-04-19T07:29:17.505Z,101162
2018-04-19T07:31:45.629Z,101161
2018-04-19T07:34:13.764Z,101168
2018-04-19T07:36:41.879Z,101170
2018-04-19T07:39:10.021Z,101164
2018-04-19T07:41:38.146Z,101162
2018-04-19T07:44:06.322Z,101163
2018-04-19T07:46:34.442Z,101159
2018-04-19T07:49:02.554Z,101165
2018-04-19T07:51:31.485Z,101163
2018-04-19T07:53:59.569Z,101164
2018-04-19T07:56:27.728Z,101167
2018-04-19T07:58:55.866Z,101164
2018-04-19T08:01:23.980Z,101163
2018-04-19T08:03:52.117Z,101156
2018-04-19T08:06:21.003Z,101151
2018-04-19T08:08:49.201Z,101146
2018-04-19T08:11:18.110Z,101157
2018-04-19T08:13:46.256Z,101147
2018-04-19T08:16:14.367Z,101149
2018-04-19T08:18:42.478Z,101155
2018-04-19T08:21:10.606Z,101148
2018-04-19T08:23:39.500Z,101149
2018-04-19T08:26:08.411Z,101146
2018-04-19T08:28:36.543Z,101152
2018-04-19T08:31:04.681Z,101153
2018-04-19T08:33:32.798Z,101162
2018-04-19T08:36:00.937Z,101159
2018-04-19T08:38:29.073Z,101164
2018-04-19T08:40:57.962Z,101158
2018-04-19T08:43:26.101Z,101158
2018-04-19T08:45:54.222Z,101162
2018-04-19T08:48:22.360Z,101167
2018-04-19T08:50:50.478Z,101159
2018-04-19T08:53:19.369Z,101155
2018-04-19T08:55:48.262Z,101155
2018-04-19T08:58:16.623Z,101156
2018-04-19T09:00:44.752Z,101160
2018-04-19T09:03:12.877Z,101155
2018-04-19T09:05:41.027Z,101159
2018-04-19T09:08:09.129Z,101155
2018-04-19T09:10:37.283Z,101157
2018-04-19T09:13:05.397Z,101154
2018-04-19T09:15:33.528Z,101164
2018-04-19T09:18:01.671Z,101159
2018-04-19T09:20:29.788Z,101161
2018-04-19T09:22:57.987Z,101161
2018-04-19T09:25:26.072Z,101165
2018-04-19T09:27:54.225Z,101164
2018-04-19T09:30:22.359Z,101166
2018-04-19T09:32:51.249Z,101164
2018-04-19T09:35:19.401Z,101164
2018-04-19T09:37:47.510Z,101156
2018-04-19T09:40:15.636Z,101163
2018-04-19T09:42:43.766Z,101164
2018-04-19T09:45:12.650Z,101165
2018-04-19T09:47:40.801Z,101164
2018-04-19T09:50:08.954Z,101164
2018-04-19T09:52:37.123Z,101164
2018-04-19T09:55:05.261Z,101163
2018-04-19T09:57:33.454Z,101158
2018-04-19T10:00:01.619Z,101167
2018-04-19T10:02:29.746Z,101164
2018-04-19T10:05:02.692Z,101153
2018-04-19T10:07:31.588Z,101162
2018-04-19T10:10:00.485Z,101162
2018-04-19T10:12:29.380Z,101154
2018-04-19T10:14:58.313Z,101150
2018-04-19T10:17:26.441Z,101158
2018-04-19T10:19:54.557Z,101151
2018-04-19T10:22:22.693Z,101156
2018-04-19T10:24:50.807Z,101140
2018-04-19T10:27:18.990Z,101140
2018-04-19T10:29:47.064Z,101143
2018-04-19T10:32:15.176Z,101137
2018-04-19T10:34:43.307Z,101137
2018-04-19T10:37:12.191Z,101134
2018-04-19T10:39:41.090Z,101136
2018-04-19T10:42:09.970Z,101136
2018-04-19T10:44:38.095Z,101140
2018-04-19T10:47:06.237Z,101132
2018-04-19T10:49:35.134Z,101128
2018-04-19T10:52:04.025Z,101135
2018-04-19T10:54:32.933Z,101137
2018-04-19T10:57:01.844Z,101126
2018-04-19T10:59:29.957Z,101138
2018-04-19T11:01:58.098Z,101125
2018-04-19T11:04:26.216Z,101128
2018-04-19T11:06:54.357Z,101137
2018-04-19T11:09:22.482Z,101117
2018-04-19T11:11:50.617Z,101123
2018-04-19T11:14:18.740Z,101115
2018-04-19T11:16:48.379Z,101121
2018-04-19T11:19:17.274Z,101111
2018-04-19T11:21:45.393Z,101116
2018-04-19T11:24:13.546Z,101118
2018-04-19T11:26:41.678Z,101108
2018-04-19T11:29:10.590Z,101109
2018-04-19T11:31:39.529Z,101117
2018-04-19T11:34:07.641Z,101101
2018-04-19T11:36:36.705Z,101115
2018-04-19T11:39:04.843Z,101104
2018-04-19T11:41:33.867Z,101107
2018-04-19T11:44:02.009Z,101106
2018-04-19T11:46:30.147Z,101095
2018-04-19T11:48:58.263Z,101094
2018-04-19T11:51:27.138Z,101101
2018-04-19T11:53:55.269Z,101099
2018-04-19T11:56:23.396Z,101093
2018-04-19T11:58:52.309Z,101090
2018-04-19T12:01:20.420Z,101089
2018-04-19T12:03:48.559Z,101088
2018-04-19T12:06:17.461Z,101107
2018-04-19T12:08:45.574Z,101100
2018-04-19T12:11:13.711Z,101084
2018-04-19T12:13:41.901Z,101102
2018-04-19T12:16:09.968Z,101090
2018-04-19T12:18:38.086Z,101091
2018-04-19T12:21:06.208Z,101086
2018-04-19T12:23:34.344Z,101083
2018-04-19T12:26:02.485Z,101081
2018-04-19T12:28:31.373Z,101076
2018-04-19T12:31:00.267Z,101078
2018-04-19T12:33:29.163Z,101073
2018-04-19T12:35:58.052Z,101073
2018-04-19T12:38:26.966Z,101073
2018-04-19T12:40:55.905Z,101065
2018-04-19T12:43:24.076Z,101063
2018-04-19T12:45:52.185Z,101069
2018-04-19T12:48:20.306Z,101063
2018-04-19T12:50:49.146Z,101057
2018-04-19T12:53:17.279Z,101055
2018-04-19T12:55:45.406Z,101057
2018-04-19T12:58:13.533Z,101056
2018-04-19T13:00:41.674Z,101050
2018-04-19T13:03:11.289Z,101044
2018-04-19T13:05:39.438Z,101036
2018-04-19T13:08:07.557Z,101053
2018-04-19T13:10:36.443Z,101046
2018-04-19T13:13:05.349Z,101055
2018-04-19T13:15:34.242Z,101039
2018-04-19T13:18:03.126Z,101041
2018-04-19T13:20:31.240Z,101031
2018-04-19T13:22:59.363Z,101022
2018-04-19T13:25:27.481Z,101029
2018-04-19T13:27:55.636Z,101027
2018-04-19T13:30:23.753Z,101011
2018-04-19T13:32:51.867Z,101009
2018-04-19T13:35:19.998Z,101018
2018-04-19T13:37:48.115Z,101021
2018-04-19T13:40:16.272Z,101019
2018-04-19T13:42:44.397Z,101009
2018-04-19T13:45:12.540Z,101009
2018-04-19T13:47:40.668Z,101001
2018-04-19T13:50:09.595Z,100994
2018-04-19T13:52:37.741Z,100992
2018-04-19T13:55:06.614Z,100990
2018-04-19T13:57:34.740Z,100989
2018-04-19T14:00:02.879Z,100991
2018-04-19T14:02:31.766Z,100978
2018-04-19T14:04:59.904Z,100975
2018-04-19T14:07:28.012Z,100975
2018-04-19T14:09:57.650Z,100971
2018-04-19T14:12:26.544Z,100972
2018-04-19T14:14:55.427Z,100961
2018-04-19T14:17:23.554Z,100966
2018-04-19T14:19:51.675Z,100956
2018-04-19T14:22:19.815Z,100961
2018-04-19T14:24:47.933Z,100949
2018-04-19T14:27:16.853Z,100949
2018-04-19T14:29:45.740Z,100954
2018-04-19T14:32:14.641Z,100945
2018-04-19T14:34:43.551Z,100944
2018-04-19T14:37:11.670Z,100950
2018-04-19T14:39:40.563Z,100941
2018-04-19T14:42:08.690Z,100936
2018-04-19T14:44:37.577Z,100940
2018-04-19T14:47:06.457Z,100937
2018-04-19T14:49:35.355Z,100939
2018-04-19T14:52:04.903Z,100938
2018-04-19T14:54:33.031Z,100931
2018-04-19T14:57:02.666Z,100936
2018-04-19T14:59:31.549Z,100930
2018-04-19T15:02:00.454Z,100929
2018-04-19T15:04:29.333Z,100930
2018-04-19T15:06:58.247Z,100923
2018-04-19T15:09:27.129Z,100927
2018-04-19T15:11:56.021Z,100923
2018-04-19T15:14:24.916Z,100920
2018-04-19T15:16:53.038Z,100927
2018-04-19T15:19:21.150Z,100923
2018-04-19T15:21:49.290Z,100926
2018-04-19T15:24:17.419Z,100919
2018-04-19T15:26:45.576Z,100916
2018-04-19T15:29:13.716Z,100920
2018-04-19T15:31:41.867Z,100911
2018-04-19T15:34:09.996Z,100911
2018-04-19T15:36:38.107Z,100915
2018-04-19T15:39:07.039Z,100908
2018-04-19T15:41:35.720Z,100917
2018-04-19T15:44:03.846Z,100921
2018-04-19T15:46:31.969Z,100919
2018-04-19T15:49:00.973Z,100910
2018-04-19T15:51:29.127Z,100908
2018-04-19T15:53:58.022Z,100908
2018-04-19T15:56:26.960Z,100901
2018-04-19T15:58:55.108Z,100909
2018-04-19T16:01:24.069Z,100909
2018-04-19T16:03:52.241Z,100904
2018-04-19T16:06:20.359Z,100898
2018-04-19T16:08:49.349Z,100902
2018-04-19T16:11:18.298Z,100899
2018-04-19T16:13:47.142Z,100895
2018-04-19T16:16:16.127Z,100894
2018-04-19T16:18:44.302Z,100894
2018-04-19T16:21:12.433Z,100897
2018-04-19T16:23:40.573Z,100889
2018-04-19T16:26:09.453Z,100889
2018-04-19T16:28:38.357Z,100884
2018-04-19T16:31:07.317Z,100886
2018-04-19T16:33:35.552Z,100890
2018-04-19T16:36:03.674Z,100885
2018-04-19T16:38:31.796Z,100890
2018-04-19T16:41:00.714Z,100882
2018-04-19T16:43:28.825Z,100886
2018-04-19T16:45:57.070Z,100878
2018-04-19T16:48:25.183Z,100882
2018-04-19T16:50:53.313Z,100874
2018-04-19T16:53:22.223Z,100868
2018-04-19T16:55:50.426Z,100875
2018-04-19T16:58:19.273Z,100871
2018-04-19T17:00:48.175Z,100873
2018-04-19T17:03:17.074Z,100863
2018-04-19T17:05:45.220Z,100858
2018-04-19T17:08:14.174Z,100861
2018-04-19T17:10:42.290Z,100865
2018-04-19T17:13:10.440Z,100860
2018-04-19T17:15:38.590Z,100860
2018-04-19T17:18:06.716Z,100864
2018-04-19T17:20:34.925Z,100861
2018-04-19T17:23:03.842Z,100861
2018-04-19T17:25:31.985Z,100855
2018-04-19T17:28:00.169Z,100857
2018-04-19T17:30:28.254Z,100860
2018-04-19T17:32:56.429Z,100863
2018-04-19T17:35:25.311Z,100857
2018-04-19T17:37:53.864Z,100861
2018-04-19T17:40:21.996Z,100859
2018-04-19T17:42:50.877Z,100866
2018-04-19T17:45:19.785Z,100865
2018-04-19T17:47:48.666Z,100861
2018-04-19T17:50:17.711Z,100868
2018-04-19T17:52:45.848Z,100871
2018-04-19T17:55:14.791Z,100869
2018-04-19T17:57:42.923Z,100869
2018-04-19T18:00:11.822Z,100864
2018-04-19T18:02:40.713Z,100863
2018-04-19T18:05:09.595Z,100874
2018-04-19T18:07:37.736Z,100873
2018-04-19T18:10:05.856Z,100869
2018-04-19T18:12:34.745Z,100876
2018-04-19T18:15:03.665Z,100873
2018-04-19T18:17:31.813Z,100879
2018-04-19T18:19:59.936Z,100877
2018-04-19T18:22:28.059Z,100882
2018-04-19T18:24:56.193Z,100881
2018-04-19T18:27:24.314Z,100878
2018-04-19T18:29:52.456Z,100879
2018-04-19T18:32:20.591Z,100880
2018-04-19T18:34:49.494Z,100888
2018-04-19T18:37:18.382Z,100891
2018-04-19T18:39:47.287Z,100884
2018-04-19T18:42:15.411Z,100893
2018-04-19T18:44:43.531Z,100895
2018-04-19T18:47:12.448Z,100893
2018-04-19T18:49:40.583Z,100895
2018-04-19T18:52:09.469Z,100900
2018-04-19T18:54:37.583Z,100890
2018-04-19T18:57:06.501Z,100897
2018-04-19T18:59:34.671Z,100905
2018-04-19T19:02:02.793Z,100905
2018-04-19T19:04:30.943Z,100904
2018-04-19T19:06:59.087Z,100906
2018-04-19T19:09:28.000Z,100905
2018-04-19T19:11:56.120Z,100898
2018-04-19T19:14:25.766Z,100902
2018-04-19T19:16:54.660Z,100902
2018-04-19T19:19:41.486Z,100901
2018-04-19T19:22:09.611Z,100898
2018-04-19T19:24:37.734Z,100906
2018-04-19T19:27:06.636Z,100901
2018-04-19T19:29:35.591Z,100905
2018-04-19T19:32:03.748Z,100907
2018-04-19T19:34:31.870Z,100913
2018-04-19T19:37:00.952Z,100910
2018-04-19T19:39:29.903Z,100906
2018-04-19T19:41:58.039Z,100909
2018-04-19T19:44:26.956Z,100905
2018-04-19T19:46:55.088Z,100904
2018-04-19T19:49:23.999Z,100899
2018-04-19T19:51:52.109Z,100912
2018-04-19T19:54:20.297Z,100909
2018-04-19T19:56:48.430Z,100910
2018-04-19T19:59:16.550Z,100917
2018-04-19T20:01:44.699Z,100912
2018-04-19T20:04:13.603Z,100907
2018-04-19T20:06:41.749Z,100902
2018-04-19T20:09:10.091Z,100906
2018-04-19T20:11:38.222Z,100902
2018-04-19T20:14:07.122Z,100894
2018-04-19T20:16:36.109Z,100898
2018-04-19T20:19:04.248Z,100888
2018-04-19T20:21:32.357Z,100898
2018-04-19T20:24:01.313Z,100891
2018-04-19T20:26:29.426Z,100896
2018-04-19T20:28:58.316Z,100893
2018-04-19T20:31:26.454Z,100890
2018-04-19T20:33:54.599Z,100893
2018-04-19T20:36:23.496Z,100891
2018-04-19T20:38:52.403Z,100893
2018-04-19T20:41:21.333Z,100884
2018-04-19T20:43:49.465Z,100888
2018-04-19T20:46:18.384Z,100886
2018-04-19T20:48:46.501Z,100887
2018-04-19T20:51:14.631Z,100880
2018-04-19T20:53:42.741Z,100887
2018-04-19T20:56:10.873Z,100887
2018-04-19T20:58:39.770Z,100882
2018-04-19T21:01:08.663Z,100888
2018-04-19T21:03:37.557Z,100875
2018-04-19T21:06:06.461Z,100879
2018-04-19T21:08:34.581Z,100879
2018-04-19T21:11:02.715Z,100880
2018-04-19T21:13:31.632Z,100878
2018-04-19T21:15:59.741Z,100883
2018-04-19T21:18:27.987Z,100874
2018-04-19T21:20:56.105Z,100883
2018-04-19T21:23:24.233Z,100877
2018-04-19T21:25:52.363Z,100873
2018-04-19T21:28:21.277Z,100871
2018-04-19T21:30:50.170Z,100872
2018-04-19T21:33:19.068Z,100869
2018-04-19T21:35:47.951Z,100866
2018-04-19T21:38:16.079Z,100864
2018-04-19T21:40:44.206Z,100867
2018-04-19T21:43:13.101Z,100865
2018-04-19T21:45:41.975Z,100866
2018-04-19T21:48:10.101Z,100866
2018-04-19T21:50:38.226Z,100859
2018-04-19T21:53:06.342Z,100859
2018-04-19T21:55:34.493Z,100855
2018-04-19T21:58:02.600Z,100853
2018-04-19T22:00:31.515Z,100847
2018-04-19T22:02:59.648Z,100853
2018-04-19T22:05:27.785Z,100853
2018-04-19T22:07:55.912Z,100854
2018-04-19T22:10:24.820Z,100852
2018-04-19T22:12:53.697Z,100843
2018-04-19T22:15:21.811Z,100849
2018-04-19T22:17:49.930Z,100849
2018-04-19T22:20:18.059Z,100851
2018-04-19T22:22:46.944Z,100854
2018-04-19T22:25:15.832Z,100845
2018-04-19T22:27:45.166Z,100844
2018-04-19T22:30:13.286Z,100835
2018-04-19T22:32:41.422Z,100838
2018-04-19T22:35:09.541Z,100839
2018-04-19T22:37:37.654Z,100833
2018-04-19T22:40:06.545Z,100832
2018-04-19T22:42:35.420Z,100827
2018-04-19T22:45:03.563Z,100826
2018-04-19T22:47:31.670Z,100822
2018-04-19T22:50:00.567Z,100822
2018-04-19T22:52:28.682Z,100819
2018-04-19T22:54:56.826Z,100820
2018-04-19T22:57:25.713Z,100820
2018-04-19T22:59:53.829Z,100814
2018-04-19T23:02:21.959Z,100813
2018-04-19T23:04:50.084Z,100812
2018-04-19T23:07:18.215Z,100813
2018-04-19T23:09:46.330Z,100812
2018-04-19T23:12:15.247Z,100811
2018-04-19T23:14:43.361Z,100817
2018-04-19T23:17:11.484Z,100813
2018-04-19T23:19:40.377Z,100809
2018-04-19T23:22:09.268Z,100811
2018-04-19T23:24:38.138Z,100817
2018-04-19T23:27:06.262Z,100808
2018-04-19T23:29:34.371Z,100800
2018-04-19T23:32:02.501Z,100795
2018-04-19T23:34:31.032Z,100797
2018-04-19T23:36:59.794Z,100801
2018-04-19T23:39:27.927Z,100799
2018-04-19T23:41:56.041Z,100802
2018-04-19T23:44:24.159Z,100803
2018-04-19T23:46:52.266Z,100797
2018-04-19T23:49:21.157Z,100800
2018-04-19T23:51:49.268Z,100795
2018-04-19T23:54:17.397Z,100791
2018-04-19T23:56:45.507Z,100787
2018-04-19T23:59:14.411Z,100786
